createdAt,value
2023-01-17T00:01:07.778Z,4.78
2023-01-17T00:06:48.418Z,4.74
2023-01-17T00:12:10.406Z,4.65
2023-01-17T00:17:32.717Z,4.62
2023-01-17T00:23:13.402Z,4.71
2023-01-17T00:28:38.326Z,4.75
2023-01-17T00:34:00.117Z,4.85
2023-01-17T00:39:22.107Z,4.97
2023-01-17T00:45:02.940Z,4.98
2023-01-17T00:50:43.622Z,5.04
2023-01-17T00:56:25.080Z,5.09
2023-01-17T01:02:06.097Z,5.10
2023-01-17T01:07:47.059Z,5.06
2023-01-17T01:13:27.794Z,5.07
2023-01-17T01:19:08.693Z,4.98
2023-01-17T01:24:49.578Z,4.93
2023-01-17T01:30:30.410Z,4.95
2023-01-17T01:35:54.350Z,4.89
2023-01-17T01:41:16.451Z,4.83
2023-01-17T01:46:40.245Z,4.87
2023-01-17T01:52:03.728Z,4.92
2023-01-17T01:57:30.328Z,4.89
2023-01-17T02:02:53.821Z,4.92
2023-01-17T02:08:19.245Z,4.88
2023-01-17T02:13:41.183Z,4.78
2023-01-17T02:19:41.021Z,4.64
2023-01-17T02:25:37.875Z,4.48
2023-01-17T02:31:16.037Z,4.42
2023-01-17T02:36:48.753Z,4.42
2023-01-17T02:42:16.128Z,4.40
2023-01-17T02:47:38.628Z,4.29
2023-01-17T02:53:21.566Z,4.20
2023-01-17T02:58:55.193Z,4.07
2023-01-17T03:04:44.931Z,3.87
2023-01-17T03:10:06.725Z,3.77
2023-01-17T03:15:30.021Z,3.68
2023-01-17T03:20:51.742Z,3.61
2023-01-17T03:26:13.537Z,3.56
2023-01-17T03:31:35.657Z,3.50
2023-01-17T03:36:57.525Z,3.49
2023-01-17T03:42:19.826Z,3.28
2023-01-17T03:47:41.945Z,3.12
2023-01-17T03:53:03.872Z,3.07
2023-01-17T03:58:25.859Z,3.16
2023-01-17T04:03:47.799Z,3.26
2023-01-17T04:09:10.069Z,3.34
2023-01-17T04:14:32.267Z,3.35
2023-01-17T04:19:57.047Z,3.31
2023-01-17T04:25:18.720Z,3.37
2023-01-17T04:30:43.874Z,3.41
2023-01-17T04:36:06.761Z,3.34
2023-01-17T04:41:28.597Z,3.22
2023-01-17T04:46:50.644Z,3.16
2023-01-17T04:52:12.697Z,3.17
2023-01-17T04:57:35.156Z,3.17
2023-01-17T05:02:56.994Z,3.08
2023-01-17T05:08:19.316Z,3.00
2023-01-17T05:13:41.450Z,3.02
2023-01-17T05:19:03.502Z,3.06
2023-01-17T05:24:25.080Z,3.07
2023-01-17T05:29:47.042Z,3.11
2023-01-17T05:35:09.763Z,3.14
2023-01-17T05:40:32.993Z,3.13
2023-01-17T05:45:55.555Z,3.18
2023-01-17T05:51:17.153Z,3.26
2023-01-17T05:56:39.286Z,3.28
2023-01-17T06:02:00.961Z,3.33
2023-01-17T06:07:23.242Z,3.30
2023-01-17T06:12:45.936Z,3.40
2023-01-17T06:18:12.624Z,3.43
2023-01-17T06:23:34.487Z,3.55
2023-01-17T06:28:56.584Z,3.64
2023-01-17T06:34:18.810Z,3.49
2023-01-17T06:39:40.438Z,3.36
2023-01-17T06:45:02.405Z,3.38
2023-01-17T06:50:25.802Z,3.53
2023-01-17T06:55:47.639Z,3.53
2023-01-17T07:01:11.155Z,3.54
2023-01-17T07:06:36.076Z,3.51
2023-01-17T07:12:02.155Z,3.49
2023-01-17T07:17:24.667Z,3.57
2023-01-17T07:22:46.712Z,3.59
2023-01-17T07:28:09.143Z,3.59
2023-01-17T07:33:30.988Z,3.59
2023-01-17T07:38:52.702Z,3.69
2023-01-17T07:44:14.709Z,3.75
2023-01-17T07:49:36.457Z,3.78
2023-01-17T07:54:58.587Z,3.78
2023-01-17T08:00:23.184Z,3.77
2023-01-17T08:05:55.747Z,3.67
2023-01-17T08:11:17.732Z,3.63
2023-01-17T08:16:40.325Z,3.65
2023-01-17T08:22:02.488Z,3.67
2023-01-17T08:27:25.218Z,3.71
2023-01-17T08:32:47.347Z,3.76
2023-01-17T08:38:08.981Z,3.76
2023-01-17T08:43:30.851Z,3.79
2023-01-17T08:48:56.762Z,3.86
2023-01-17T08:54:19.246Z,3.90
2023-01-17T08:59:44.278Z,3.96
2023-01-17T09:05:06.923Z,4.01
2023-01-17T09:10:29.207Z,4.05
2023-01-17T09:15:50.972Z,4.12
2023-01-17T09:21:18.400Z,4.27
2023-01-17T09:26:40.808Z,4.40
2023-01-17T09:32:02.665Z,4.47
2023-01-17T09:37:24.491Z,4.62
2023-01-17T09:42:50.891Z,4.80
2023-01-17T09:48:21.459Z,4.94
2023-01-17T09:53:44.097Z,5.01
2023-01-17T09:59:35.423Z,5.08
2023-01-17T10:05:30.011Z,5.12
2023-01-17T10:11:13.949Z,5.25
2023-01-17T10:16:52.664Z,5.44
2023-01-17T10:22:33.051Z,5.56
2023-01-17T10:28:00.317Z,5.62
2023-01-17T10:33:25.568Z,5.77
2023-01-17T10:38:53.309Z,5.88
2023-01-17T10:44:39.302Z,5.87
2023-01-17T10:50:05.464Z,5.85
2023-01-17T10:55:44.265Z,5.84
2023-01-17T11:01:15.133Z,5.88
2023-01-17T11:06:53.189Z,5.97
2023-01-17T11:12:43.911Z,6.06
2023-01-17T11:18:07.244Z,6.16
2023-01-17T11:23:33.399Z,6.30
2023-01-17T11:29:16.006Z,6.35
2023-01-17T11:34:38.823Z,6.46
2023-01-17T11:40:08.186Z,6.48
2023-01-17T11:45:32.515Z,6.56
2023-01-17T11:50:57.960Z,6.63
2023-01-17T11:56:33.940Z,6.67
2023-01-17T12:02:04.701Z,6.74
2023-01-17T12:07:52.065Z,6.75
2023-01-17T12:13:41.806Z,6.71
2023-01-17T12:19:07.139Z,6.74
2023-01-17T12:24:48.183Z,6.80
2023-01-17T12:30:17.736Z,6.90
2023-01-17T12:35:51.050Z,6.93
2023-01-17T12:41:26.759Z,6.88
2023-01-17T12:47:00.562Z,6.89
2023-01-17T12:52:54.814Z,6.96
2023-01-17T12:58:21.878Z,6.96
2023-01-17T13:04:03.542Z,6.97
2023-01-17T13:09:28.295Z,6.98
2023-01-17T13:14:50.209Z,6.95
2023-01-17T13:20:43.225Z,6.90
2023-01-17T13:26:14.336Z,6.85
2023-01-17T13:31:48.353Z,6.77
2023-01-17T13:37:25.965Z,6.73
2023-01-17T13:43:01.176Z,6.76
2023-01-17T13:48:23.376Z,6.76
2023-01-17T13:53:46.221Z,6.69
2023-01-17T13:59:27.703Z,6.64
2023-01-17T14:05:30.782Z,6.50
2023-01-17T14:10:54.311Z,6.36
2023-01-17T14:16:21.818Z,6.33
2023-01-17T14:21:43.917Z,6.30
2023-01-17T14:27:16.256Z,6.22
2023-01-17T14:32:39.091Z,6.16
2023-01-17T14:38:03.168Z,6.11
2023-01-17T14:43:28.226Z,6.07
2023-01-17T14:48:51.705Z,6.01
2023-01-17T14:54:19.358Z,5.97
2023-01-17T14:59:41.179Z,5.93
2023-01-17T15:05:02.916Z,5.80
2023-01-17T15:10:30.404Z,5.72
2023-01-17T15:16:06.650Z,5.66
2023-01-17T15:21:33.501Z,5.61
2023-01-17T15:26:55.315Z,5.55
2023-01-17T15:32:24.134Z,5.47
2023-01-17T15:37:45.502Z,5.49
2023-01-17T15:43:18.895Z,5.36
2023-01-17T15:48:45.072Z,5.25
2023-01-17T15:54:26.304Z,5.23
2023-01-17T15:59:53.852Z,5.23
2023-01-17T16:05:25.120Z,5.15
2023-01-17T16:10:47.145Z,4.98
2023-01-17T16:16:21.250Z,4.86
2023-01-17T16:21:45.255Z,4.74
2023-01-17T16:27:09.291Z,4.53
2023-01-17T16:32:32.333Z,4.25
2023-01-17T16:37:54.354Z,4.13
2023-01-17T16:43:18.391Z,4.02
2023-01-17T16:48:40.125Z,3.88
2023-01-17T16:54:02.315Z,3.79
2023-01-17T16:59:25.110Z,3.73
2023-01-17T17:04:46.805Z,3.65
2023-01-17T17:10:10.755Z,3.65
2023-01-17T17:15:32.782Z,3.67
2023-01-17T17:20:55.013Z,3.66
2023-01-17T17:26:16.744Z,3.63
2023-01-17T17:31:42.516Z,3.67
2023-01-17T17:37:04.933Z,3.77
2023-01-17T17:42:26.832Z,3.83
2023-01-17T17:47:48.828Z,3.82
2023-01-17T17:53:10.750Z,3.83
2023-01-17T17:58:34.614Z,3.89
2023-01-17T18:04:00.976Z,4.05
2023-01-17T18:09:22.859Z,4.06
2023-01-17T18:14:44.852Z,4.06
2023-01-17T18:20:07.863Z,4.09
2023-01-17T18:25:29.737Z,4.11
2023-01-17T18:30:51.630Z,4.30
2023-01-17T18:36:14.103Z,4.42
2023-01-17T18:41:35.942Z,4.45
2023-01-17T18:47:02.040Z,4.17
2023-01-17T18:52:24.665Z,3.81
2023-01-17T18:57:46.455Z,3.63
2023-01-17T19:03:08.416Z,3.48
2023-01-17T19:08:32.762Z,3.45
2023-01-17T19:13:55.492Z,3.44
2023-01-17T19:19:17.617Z,3.43
2023-01-17T19:24:40.665Z,3.38
2023-01-17T19:30:02.686Z,3.34
2023-01-17T19:35:24.428Z,3.28
2023-01-17T19:40:46.526Z,3.15
2023-01-17T19:46:09.008Z,3.04
2023-01-17T19:51:31.613Z,3.02
2023-01-17T19:56:53.534Z,3.01
2023-01-17T20:02:15.658Z,2.98
2023-01-17T20:07:37.898Z,2.98
2023-01-17T20:12:59.623Z,2.96
2023-01-17T20:18:22.618Z,2.93
2023-01-17T20:23:47.295Z,2.91
2023-01-17T20:29:12.877Z,2.91
2023-01-17T20:34:36.774Z,2.94
2023-01-17T20:39:58.707Z,3.02
2023-01-17T20:45:20.434Z,3.21
2023-01-17T20:50:42.259Z,3.44
2023-01-17T20:56:05.193Z,3.68
2023-01-17T21:01:27.302Z,3.82
2023-01-17T21:06:51.962Z,3.82
2023-01-17T21:12:14.796Z,3.97
2023-01-17T21:17:40.849Z,4.05
2023-01-17T21:23:03.742Z,3.97
2023-01-17T21:28:28.014Z,3.73
2023-01-17T21:34:10.869Z,3.53
2023-01-17T21:39:33.040Z,3.41
2023-01-17T21:44:55.985Z,3.37
2023-01-17T21:50:32.438Z,3.38
2023-01-17T21:56:19.577Z,3.43
2023-01-17T22:01:41.560Z,3.37
2023-01-17T22:07:03.531Z,3.36
2023-01-17T22:12:25.437Z,3.30
2023-01-17T22:17:47.691Z,3.24
2023-01-17T22:23:10.224Z,3.19
2023-01-17T22:28:33.358Z,3.16
2023-01-17T22:34:03.423Z,3.22
2023-01-17T22:39:25.457Z,3.29
2023-01-17T22:44:47.991Z,3.42
2023-01-17T22:50:10.670Z,3.41
2023-01-17T22:55:32.535Z,3.34
2023-01-17T23:01:02.847Z,3.27
2023-01-17T23:06:28.913Z,3.25
2023-01-17T23:11:53.076Z,3.22
2023-01-17T23:17:33.271Z,3.32
2023-01-17T23:22:55.518Z,3.34
2023-01-17T23:28:20.992Z,3.33
2023-01-17T23:33:42.779Z,3.33
2023-01-17T23:39:04.705Z,3.42
2023-01-17T23:44:31.780Z,3.56
2023-01-17T23:49:53.377Z,3.64
2023-01-17T23:55:15.508Z,3.76
